Time;durP1;ratioP1;P1;durP2;ratioP2;P2;SDS_P1;SDS_P2;PMS_P1;PMS_P2;Temp;Humidity;BMP_temperature;BMP_pressure;BME280_temperature;BME280_humidity;BME280_pressure;Samples;Min_cycle;Max_cycle;Signal;HPM_P1;HPM_P2
2023/07/26 00:01:01;;;;;;;1.10;1.00;;;16.30;99.90;;;;;;5047522;28;20072;-41
2023/07/26 00:03:27;;;;;;;1.58;1.27;;;16.30;99.90;;;;;;5046506;28;20465;-41
2023/07/26 00:05:52;;;;;;;2.65;1.30;;;16.20;99.90;;;;;;5047397;28;20021;-41
2023/07/26 00:08:19;;;;;;;1.55;1.30;;;16.20;99.90;;;;;;5047558;28;20021;-41
2023/07/26 00:10:47;;;;;;;1.52;1.10;;;16.20;99.90;;;;;;5046843;28;20049;-41
2023/07/26 00:13:16;;;;;;;1.83;1.40;;;16.20;99.90;;;;;;5047554;28;20115;-41
2023/07/26 00:15:41;;;;;;;1.45;1.30;;;16.20;99.90;;;;;;5045665;28;20120;-42
2023/07/26 00:18:07;;;;;;;1.85;1.65;;;16.10;99.90;;;;;;5046918;28;20112;-41
2023/07/26 00:20:33;;;;;;;1.70;1.10;;;16.10;99.90;;;;;;5047146;28;20032;-41
2023/07/26 00:22:59;;;;;;;2.33;1.30;;;16.10;99.90;;;;;;5046142;28;20029;-41
2023/07/26 00:25:24;;;;;;;1.67;1.58;;;16.10;99.90;;;;;;5046986;28;20025;-42
2023/07/26 00:27:50;;;;;;;1.77;1.52;;;16.10;99.90;;;;;;5046818;28;20535;-41
2023/07/26 00:30:16;;;;;;;3.85;1.90;;;16.10;99.90;;;;;;5046136;28;20025;-41
2023/07/26 00:32:41;;;;;;;2.70;1.55;;;16.10;99.90;;;;;;5046852;28;20040;-42
2023/07/26 00:35:07;;;;;;;2.10;1.52;;;16.10;99.90;;;;;;5046936;28;20036;-41
2023/07/26 00:37:33;;;;;;;2.50;1.80;;;16.10;99.90;;;;;;5046333;28;20017;-42
2023/07/26 00:39:58;;;;;;;2.22;1.98;;;16.10;99.90;;;;;;5026705;28;20025;-41
2023/07/26 00:42:24;;;;;;;2.83;1.80;;;16.10;99.90;;;;;;5040600;28;20127;-41
2023/07/26 00:44:49;;;;;;;1.80;1.70;;;16.20;99.90;;;;;;5046096;28;20051;-41
2023/07/26 00:47:16;;;;;;;1.75;1.65;;;16.20;99.90;;;;;;5046263;28;20029;-41
2023/07/26 00:49:42;;;;;;;2.10;1.90;;;16.20;99.90;;;;;;5046356;28;20481;-41
2023/07/26 00:52:10;;;;;;;1.77;1.63;;;16.20;99.90;;;;;;5045486;28;20025;-41
2023/07/26 00:54:36;;;;;;;2.15;1.60;;;16.20;99.90;;;;;;5046540;28;20469;-41
2023/07/26 00:57:01;;;;;;;3.08;1.85;;;16.10;99.90;;;;;;5045781;28;20024;-41
2023/07/26 00:59:27;;;;;;;2.55;2.00;;;16.00;99.90;;;;;;5045903;28;20104;-41
2023/07/26 01:01:53;;;;;;;3.17;1.70;;;16.00;99.90;;;;;;5046046;28;20488;-41
2023/07/26 01:04:18;;;;;;;2.30;1.83;;;16.00;99.90;;;;;;5045940;28;20025;-41
2023/07/26 01:07:11;;;;;;;2.10;1.90;;;15.90;99.90;;;;;;5045858;28;20127;-41
2023/07/26 01:10:03;;;;;;;2.85;1.98;;;15.90;99.90;;;;;;5046229;28;20056;-41
2023/07/26 01:12:42;;;;;;;2.95;1.80;;;15.80;99.90;;;;;;5042723;28;20029;-41
2023/07/26 01:15:12;;;;;;;1.95;1.60;;;15.80;99.90;;;;;;5046192;28;20021;-41
2023/07/26 01:17:38;;;;;;;2.30;1.88;;;15.70;99.90;;;;;;5045376;28;20040;-41
2023/07/26 01:20:04;;;;;;;2.25;1.70;;;15.70;99.90;;;;;;5045498;28;20024;-41
2023/07/26 01:22:30;;;;;;;2.00;1.80;;;15.60;99.90;;;;;;5046088;28;20508;-41
2023/07/26 01:24:58;;;;;;;1.98;1.77;;;15.60;99.90;;;;;;5045931;28;20017;-42
2023/07/26 01:27:24;;;;;;;2.35;1.90;;;15.50;99.90;;;;;;5045675;28;20120;-41
2023/07/26 01:29:54;;;;;;;2.75;2.10;;;15.50;99.90;;;;;;5045561;28;20108;-40
2023/07/26 01:32:24;;;;;;;2.33;1.70;;;15.50;99.90;;;;;;5045648;28;20033;-41
2023/07/26 01:34:50;;;;;;;2.10;1.75;;;15.40;99.90;;;;;;5045206;28;20136;-41
2023/07/26 01:37:18;;;;;;;2.05;1.83;;;15.40;99.90;;;;;;5045660;28;20150;-41
2023/07/26 01:39:44;;;;;;;2.42;1.77;;;15.30;99.90;;;;;;5045001;28;20481;-41
2023/07/26 01:42:10;;;;;;;2.65;2.03;;;15.30;99.90;;;;;;5045106;28;20055;-41
2023/07/26 01:44:36;;;;;;;2.45;2.22;;;15.30;99.90;;;;;;5044993;28;20028;-41
2023/07/26 01:47:02;;;;;;;2.10;1.90;;;15.30;99.90;;;;;;5044532;28;20025;-41
2023/07/26 01:49:30;;;;;;;3.47;2.10;;;15.30;99.90;;;;;;5045796;28;20024;-41
2023/07/26 01:51:56;;;;;;;3.65;2.03;;;15.30;99.90;;;;;;5045787;28;20024;-42
2023/07/26 01:54:22;;;;;;;3.15;2.20;;;15.30;99.90;;;;;;5043955;28;20091;-41
2023/07/26 01:56:47;;;;;;;2.03;1.80;;;15.30;99.90;;;;;;5045281;28;20025;-41
2023/07/26 01:59:13;;;;;;;2.55;2.15;;;15.20;99.90;;;;;;5044911;28;20180;-41
2023/07/26 02:01:41;;;;;;;3.45;2.47;;;15.20;99.90;;;;;;5044570;28;20040;-42
2023/07/26 02:04:07;;;;;;;3.20;2.55;;;15.20;99.90;;;;;;5045063;28;20013;-41
2023/07/26 02:06:32;;;;;;;3.15;2.40;;;15.20;99.90;;;;;;5044866;28;20033;-41
2023/07/26 02:08:58;;;;;;;2.78;2.30;;;15.20;99.90;;;;;;5044146;28;20039;-42
2023/07/26 02:11:23;;;;;;;4.32;2.40;;;15.10;99.90;;;;;;5045607;28;20088;-41
2023/07/26 02:13:49;;;;;;;2.90;2.70;;;15.00;99.90;;;;;;5044687;28;20074;-41
2023/07/26 02:16:15;;;;;;;2.90;2.42;;;15.00;99.90;;;;;;5043858;28;20739;-41
2023/07/26 02:18:40;;;;;;;3.35;2.63;;;15.00;99.90;;;;;;5044809;28;20025;-42
2023/07/26 02:21:06;;;;;;;3.45;2.70;;;15.00;99.90;;;;;;5045136;28;20131;-42
2023/07/26 02:23:33;;;;;;;3.22;2.65;;;15.00;99.90;;;;;;5044667;28;20021;-42
2023/07/26 02:25:59;;;;;;;4.78;2.50;;;14.90;99.90;;;;;;5045035;28;20622;-42
2023/07/26 02:28:24;;;;;;;2.88;2.60;;;14.90;99.90;;;;;;5052173;28;20103;-42
2023/07/26 02:30:50;;;;;;;2.78;2.58;;;15.00;99.90;;;;;;5050828;28;20024;-42
2023/07/26 02:33:16;;;;;;;3.10;2.65;;;14.90;99.90;;;;;;5051719;28;20063;-42
2023/07/26 02:35:41;;;;;;;2.85;2.55;;;14.90;99.90;;;;;;5051684;28;20670;-42
2023/07/26 02:38:07;;;;;;;2.90;2.60;;;14.90;99.90;;;;;;5050848;28;20095;-42
2023/07/26 02:40:36;;;;;;;3.67;2.97;;;14.90;99.90;;;;;;5051356;28;20028;-41
2023/07/26 02:43:02;;;;;;;2.95;2.75;;;14.90;99.90;;;;;;5051441;28;20361;-41
2023/07/26 02:45:27;;;;;;;3.45;3.15;;;14.90;99.90;;;;;;5051360;28;20017;-41
2023/07/26 02:47:53;;;;;;;3.38;3.05;;;14.80;99.90;;;;;;5051341;28;21001;-42
2023/07/26 02:50:18;;;;;;;3.35;3.03;;;14.80;99.90;;;;;;5051299;28;20457;-41
2023/07/26 02:52:44;;;;;;;3.33;3.03;;;14.70;99.90;;;;;;5051390;28;20028;-41
2023/07/26 02:55:10;;;;;;;4.68;3.88;;;14.70;99.90;;;;;;5050919;28;20025;-44
2023/07/26 02:57:35;;;;;;;3.97;3.53;;;14.70;99.90;;;;;;5051089;28;20040;-41
2023/07/26 03:00:04;;;;;;;3.42;3.13;;;14.70;99.90;;;;;;5051821;28;20384;-42
2023/07/26 03:02:31;;;;;;;5.90;3.55;;;14.70;99.90;;;;;;5051267;28;20062;-42
2023/07/26 03:04:56;;;;;;;4.00;3.70;;;14.60;99.90;;;;;;5051459;28;20074;-42
2023/07/26 03:07:22;;;;;;;4.38;3.70;;;14.60;99.90;;;;;;5051048;28;20029;-42
2023/07/26 03:09:48;;;;;;;4.55;3.80;;;14.60;99.90;;;;;;5050977;28;20052;-42
2023/07/26 03:12:13;;;;;;;3.55;3.25;;;14.60;99.90;;;;;;5050320;28;20021;-41
2023/07/26 03:14:40;;;;;;;4.15;3.75;;;14.60;99.90;;;;;;5051058;28;20735;-42
2023/07/26 03:17:07;;;;;;;4.00;3.60;;;14.60;99.90;;;;;;5050705;28;20033;-42
2023/07/26 03:19:33;;;;;;;4.03;3.63;;;14.60;99.90;;;;;;5050458;28;20421;-42
2023/07/26 03:22:05;;;;;;;4.10;3.65;;;14.50;99.90;;;;;;5050293;28;20561;-42
2023/07/26 03:24:30;;;;;;;4.22;3.83;;;14.50;99.90;;;;;;5050995;28;20025;-42
2023/07/26 03:26:56;;;;;;;4.28;3.67;;;14.50;99.90;;;;;;5050654;28;20091;-42
2023/07/26 03:29:22;;;;;;;4.82;4.00;;;14.40;99.90;;;;;;5050957;28;20033;-42
2023/07/26 03:31:47;;;;;;;4.72;4.13;;;14.50;99.90;;;;;;5050437;28;20029;-42
2023/07/26 03:34:13;;;;;;;4.47;4.07;;;14.40;99.90;;;;;;5049976;28;20049;-43
2023/07/26 03:36:39;;;;;;;4.40;4.00;;;14.40;99.90;;;;;;5050863;28;20036;-42
2023/07/26 03:39:04;;;;;;;4.35;3.95;;;14.40;99.90;;;;;;5048252;28;20028;-42
2023/07/26 03:41:30;;;;;;;4.30;3.97;;;14.40;99.90;;;;;;5047280;28;20033;-41
2023/07/26 03:43:55;;;;;;;4.78;4.28;;;14.40;99.90;;;;;;5047771;28;20021;-42
2023/07/26 03:46:21;;;;;;;4.55;4.15;;;14.40;99.90;;;;;;5047821;28;20033;-41
2023/07/26 03:48:46;;;;;;;5.03;4.50;;;14.30;99.90;;;;;;5046838;28;20094;-42
2023/07/26 03:51:12;;;;;;;4.82;4.32;;;14.30;99.90;;;;;;5047698;28;20017;-42
2023/07/26 03:53:38;;;;;;;4.60;4.15;;;14.30;99.90;;;;;;5046752;28;20033;-42
2023/07/26 03:56:03;;;;;;;4.97;4.47;;;14.30;99.90;;;;;;5047607;28;20021;-42
2023/07/26 03:58:29;;;;;;;5.05;4.55;;;14.20;99.90;;;;;;5047548;28;20033;-41
2023/07/26 04:00:54;;;;;;;7.15;5.07;;;14.20;99.90;;;;;;5026784;28;20034;-42
2023/07/26 04:03:20;;;;;;;5.28;4.50;;;14.20;99.90;;;;;;5034856;28;20029;-42
2023/07/26 04:05:46;;;;;;;5.00;4.60;;;14.20;99.90;;;;;;5047573;28;20087;-42
2023/07/26 04:08:11;;;;;;;5.35;4.90;;;14.20;99.90;;;;;;5046666;28;20498;-41
2023/07/26 04:10:37;;;;;;;4.97;4.57;;;14.20;99.90;;;;;;5047623;28;20041;-42
2023/07/26 04:13:03;;;;;;;5.07;4.68;;;14.20;99.90;;;;;;5047324;28;20025;-42
2023/07/26 04:15:29;;;;;;;5.75;5.15;;;14.20;99.90;;;;;;5046342;28;20021;-43
2023/07/26 04:17:55;;;;;;;8.20;5.57;;;14.20;99.90;;;;;;5047526;28;20113;-42
2023/07/26 04:20:21;;;;;;;6.60;5.47;;;14.30;99.90;;;;;;5046341;28;20033;-42
2023/07/26 04:22:46;;;;;;;5.97;5.38;;;14.30;99.90;;;;;;5046828;28;20074;-42
2023/07/26 04:25:12;;;;;;;5.82;5.20;;;14.40;99.90;;;;;;5046381;28;20036;-42
2023/07/26 04:27:37;;;;;;;5.70;5.20;;;14.50;99.90;;;;;;5046906;28;20024;-42
2023/07/26 04:30:03;;;;;;;5.70;5.20;;;14.50;99.90;;;;;;5046062;28;20032;-43
2023/07/26 04:32:32;;;;;;;5.90;5.40;;;14.60;99.90;;;;;;5046609;28;20067;-43
2023/07/26 04:34:57;;;;;;;6.63;5.47;;;14.60;99.90;;;;;;5046493;28;20663;-42
2023/07/26 04:37:23;;;;;;;5.13;4.50;;;14.60;99.90;;;;;;5046171;28;20021;-42
2023/07/26 04:39:49;;;;;;;4.93;4.43;;;14.60;99.90;;;;;;5046047;28;20040;-42
2023/07/26 04:42:18;;;;;;;5.72;5.10;;;14.60;99.90;;;;;;5046447;28;20051;-42
2023/07/26 04:44:50;;;;;;;6.22;5.63;;;14.60;99.90;;;;;;5044999;28;20396;-42
2023/07/26 04:47:28;;;;;;;5.70;5.20;;;14.60;99.90;;;;;;5046501;28;20043;-41
2023/07/26 04:49:53;;;;;;;5.88;5.22;;;14.60;99.90;;;;;;5045253;28;20046;-41
2023/07/26 04:52:19;;;;;;;5.93;5.43;;;14.60;99.90;;;;;;5046900;28;20038;-41
2023/07/26 04:54:44;;;;;;;5.80;5.25;;;14.50;99.90;;;;;;5046536;28;20469;-41
2023/07/26 04:57:10;;;;;;;6.63;5.95;;;14.50;99.90;;;;;;5045356;28;20059;-42
2023/07/26 04:59:36;;;;;;;6.55;5.95;;;14.50;99.90;;;;;;5046016;28;20025;-42
2023/07/26 05:02:01;;;;;;;6.90;6.10;;;14.50;99.90;;;;;;5045825;28;20025;-42
2023/07/26 05:04:27;;;;;;;5.88;5.28;;;14.50;99.90;;;;;;5046050;28;20052;-42
2023/07/26 05:06:52;;;;;;;6.63;5.50;;;14.50;99.90;;;;;;5045838;28;20052;-42
2023/07/26 05:09:18;;;;;;;5.43;4.93;;;14.50;99.90;;;;;;5045801;28;20775;-43
2023/07/26 05:11:43;;;;;;;6.10;4.65;;;14.50;99.90;;;;;;5044683;28;20063;-42
2023/07/26 05:14:09;;;;;;;5.53;5.03;;;14.60;99.90;;;;;;5045700;28;20024;-42
2023/07/26 05:16:40;;;;;;;5.28;4.78;;;14.60;99.90;;;;;;5046073;28;20033;-43
2023/07/26 05:19:06;;;;;;;6.00;5.40;;;14.60;99.90;;;;;;5045904;28;20025;-43
2023/07/26 05:21:32;;;;;;;5.60;4.57;;;14.60;99.90;;;;;;5045311;28;20388;-42
2023/07/26 05:23:57;;;;;;;4.93;4.50;;;14.70;99.90;;;;;;5046112;28;20021;-43
2023/07/26 05:26:23;;;;;;;4.95;4.55;;;14.70;99.90;;;;;;5044921;28;20366;-43
2023/07/26 05:28:49;;;;;;;4.82;4.38;;;14.80;99.90;;;;;;5046508;28;20025;-42
2023/07/26 05:31:14;;;;;;;5.00;4.60;;;14.80;99.90;;;;;;5045811;28;20048;-42
2023/07/26 05:33:40;;;;;;;4.63;4.22;;;14.80;99.90;;;;;;5044932;28;20032;-42
2023/07/26 05:36:06;;;;;;;4.88;4.47;;;14.80;99.90;;;;;;5045958;28;20112;-42
2023/07/26 05:38:32;;;;;;;5.22;4.72;;;14.90;99.90;;;;;;5046186;28;20025;-42
2023/07/26 05:41:04;;;;;;;5.43;4.93;;;14.90;99.90;;;;;;5045314;28;20079;-42
2023/07/26 05:43:32;;;;;;;;;;;15.00;99.90;;;;;;5047087;28;20016;-42
2023/07/26 05:45:59;;;;;;;3.90;3.50;;;15.00;99.90;;;;;;5045886;28;19908;-41
2023/07/26 05:48:25;;;;;;;4.20;3.90;;;15.10;99.90;;;;;;5045166;28;20491;-42
2023/07/26 05:50:50;;;;;;;5.15;4.70;;;15.00;99.90;;;;;;5045491;28;20040;-41
2023/07/26 05:53:16;;;;;;;4.78;4.38;;;15.10;99.90;;;;;;5044462;28;20757;-42
2023/07/26 05:55:42;;;;;;;5.60;4.22;;;15.10;99.90;;;;;;5045425;28;20033;-41
2023/07/26 05:58:07;;;;;;;4.97;4.40;;;15.10;99.90;;;;;;5045202;28;20032;-42
2023/07/26 06:00:33;;;;;;;5.30;4.80;;;15.10;99.90;;;;;;5044315;28;20548;-41
2023/07/26 06:02:58;;;;;;;5.82;5.22;;;15.20;99.90;;;;;;5044704;28;20033;-41
2023/07/26 06:05:24;;;;;;;5.30;4.80;;;15.20;99.90;;;;;;5045852;28;20021;-42
2023/07/26 06:07:50;;;;;;;6.00;5.10;;;15.30;99.90;;;;;;5044724;28;20356;-42
2023/07/26 06:10:16;;;;;;;5.05;4.57;;;15.30;99.90;;;;;;5045413;28;20056;-42
2023/07/26 06:12:41;;;;;;;6.38;5.78;;;15.40;99.90;;;;;;5044880;28;20025;-42
2023/07/26 06:15:07;;;;;;;5.47;4.97;;;15.50;99.90;;;;;;5044070;28;20806;-42
2023/07/26 06:17:33;;;;;;;5.68;5.07;;;15.60;99.90;;;;;;5045186;28;20032;-42
2023/07/26 06:19:59;;;;;;;5.00;4.15;;;15.70;99.90;;;;;;5044767;28;20024;-41
2023/07/26 06:22:25;;;;;;;5.55;3.72;;;15.80;99.90;;;;;;5043895;28;20435;-41
2023/07/26 06:24:50;;;;;;;4.53;3.90;;;16.00;99.90;;;;;;5045479;28;20059;-41
2023/07/26 06:27:23;;;;;;;4.13;3.70;;;16.20;99.90;;;;;;5044972;28;20029;-42
2023/07/26 06:29:48;;;;;;;;;;;16.40;99.90;;;;;;5044825;28;20025;-42
2023/07/26 06:32:14;;;;;;;3.28;2.95;;;16.50;99.90;;;;;;5045509;28;19916;-42
2023/07/26 06:34:49;;;;;;;3.65;3.35;;;16.60;99.90;;;;;;5044590;28;20579;-41
2023/07/26 06:37:14;;;;;;;3.80;3.50;;;16.70;99.90;;;;;;5044528;28;20051;-41
2023/07/26 06:39:40;;;;;;;3.45;3.15;;;16.70;99.90;;;;;;5044533;28;20491;-42
2023/07/26 06:42:06;;;;;;;4.00;3.63;;;16.70;99.90;;;;;;5045051;28;20696;-42
2023/07/26 06:44:32;;;;;;;4.22;3.70;;;16.80;99.90;;;;;;5043982;28;20025;-42
2023/07/26 06:46:57;;;;;;;5.35;4.30;;;16.80;99.90;;;;;;5044602;28;20029;-42
2023/07/26 06:49:23;;;;;;;4.22;3.55;;;16.80;99.90;;;;;;5044608;28;20123;-42
2023/07/26 06:51:51;;;;;;;4.45;4.05;;;16.80;99.90;;;;;;5044087;28;20029;-42
2023/07/26 06:54:16;;;;;;;5.07;4.10;;;16.80;99.90;;;;;;5044672;28;20087;-43
2023/07/26 06:56:42;;;;;;;5.30;4.40;;;16.70;99.90;;;;;;5044616;28;20422;-42
2023/07/26 06:59:12;;;;;;;5.07;4.57;;;16.70;99.90;;;;;;5044477;28;20116;-43
2023/07/26 07:01:37;;;;;;;5.75;4.32;;;16.70;99.90;;;;;;5044694;28;20444;-42
2023/07/26 07:04:03;;;;;;;4.47;4.03;;;16.70;99.90;;;;;;5044040;28;20021;-42
2023/07/26 07:06:29;;;;;;;4.32;3.92;;;16.70;99.90;;;;;;5044130;28;20041;-42
2023/07/26 07:08:57;;;;;;;5.03;4.50;;;16.70;99.90;;;;;;5043872;28;20389;-42
2023/07/26 07:11:23;;;;;;;4.88;4.30;;;16.70;99.90;;;;;;5043846;28;20492;-41
2023/07/26 07:13:48;;;;;;;7.03;4.70;;;16.70;99.90;;;;;;5046977;28;20032;-42
2023/07/26 07:16:14;;;;;;;5.45;4.90;;;16.60;99.90;;;;;;5048478;28;20029;-42
2023/07/26 07:18:39;;;;;;;5.90;4.80;;;16.60;99.90;;;;;;5048176;28;20465;-41
2023/07/26 07:21:05;;;;;;;5.20;4.45;;;16.50;99.90;;;;;;5047810;28;20033;-42
2023/07/26 07:23:35;;;;;;;5.75;4.63;;;16.40;99.90;;;;;;5048059;28;20035;-42
2023/07/26 07:26:00;;;;;;;5.00;4.50;;;16.30;99.90;;;;;;5047405;28;20035;-42
2023/07/26 07:28:26;;;;;;;6.03;4.80;;;16.20;99.90;;;;;;5048867;28;20090;-42
2023/07/26 07:30:51;;;;;;;6.22;4.53;;;16.10;99.90;;;;;;5048056;28;20063;-41
2023/07/26 07:33:17;;;;;;;3.63;3.33;;;16.00;99.90;;;;;;5047819;28;20021;-42
2023/07/26 07:35:43;;;;;;;5.30;4.20;;;15.90;99.90;;;;;;5047629;28;20502;-42
2023/07/26 07:38:08;;;;;;;7.07;5.05;;;15.80;99.90;;;;;;5047968;28;20025;-42
2023/07/26 07:40:34;;;;;;;5.43;3.90;;;15.60;99.90;;;;;;5047331;28;20021;-42
2023/07/26 07:42:59;;;;;;;4.68;3.72;;;15.40;99.90;;;;;;5047695;28;20104;-43
2023/07/26 07:45:25;;;;;;;4.13;3.13;;;15.30;99.90;;;;;;5047618;28;20025;-43
2023/07/26 07:47:50;;;;;;;3.60;2.65;;;15.30;99.90;;;;;;5046990;28;20113;-42
2023/07/26 07:50:16;;;;;;;2.00;1.60;;;15.20;99.90;;;;;;5047371;28;20021;-43
2023/07/26 07:52:42;;;;;;;1.33;1.10;;;15.10;99.90;;;;;;5047641;28;20469;-43
2023/07/26 07:55:08;;;;;;;1.15;1.05;;;15.00;99.90;;;;;;5047758;28;20037;-43
2023/07/26 07:57:36;;;;;;;3.15;1.10;;;14.90;99.90;;;;;;5047180;28;20381;-43
2023/07/26 08:00:02;;;;;;;1.67;1.13;;;14.80;99.90;;;;;;5046497;28;20107;-42
2023/07/26 08:02:28;;;;;;;1.63;1.10;;;14.90;99.90;;;;;;5048091;28;20033;-42
2023/07/26 08:04:53;;;;;;;1.63;1.23;;;14.90;99.90;;;;;;5047600;28;20032;-43
2023/07/26 08:07:25;;;;;;;3.08;1.73;;;14.90;99.90;;;;;;5046220;28;20071;-42
2023/07/26 08:09:50;;;;;;;1.95;1.30;;;15.00;99.90;;;;;;5047435;28;20043;-42
2023/07/26 08:12:22;;;;;;;1.60;1.25;;;15.20;99.90;;;;;;5046779;28;20565;-41
2023/07/26 08:14:50;;;;;;;1.40;1.30;;;15.30;99.90;;;;;;5047490;28;20160;-41
2023/07/26 08:17:15;;;;;;;1.45;1.35;;;15.40;99.90;;;;;;5047437;28;20021;-41
2023/07/26 08:19:41;;;;;;;1.45;1.27;;;15.40;99.90;;;;;;5047412;28;20025;-41
2023/07/26 08:22:09;;;;;;;1.70;1.60;;;15.50;99.90;;;;;;5046411;28;20392;-42
2023/07/26 08:24:35;;;;;;;1.60;1.50;;;15.40;99.90;;;;;;5045886;28;20744;-41
2023/07/26 08:27:02;;;;;;;1.65;1.30;;;15.40;99.90;;;;;;5046600;28;20158;-41
2023/07/26 08:29:31;;;;;;;1.20;1.10;;;15.40;99.90;;;;;;5046405;28;20473;-41
2023/07/26 08:31:59;;;;;;;1.40;1.30;;;15.40;99.90;;;;;;5047317;28;20392;-42
2023/07/26 08:34:25;;;;;;;1.13;1.02;;;15.40;99.90;;;;;;5046932;28;20047;-42
2023/07/26 08:36:50;;;;;;;1.40;1.30;;;15.40;99.90;;;;;;5045523;28;20032;-41
2023/07/26 08:39:16;;;;;;;1.20;1.10;;;15.40;99.90;;;;;;5047488;28;20059;-41
2023/07/26 08:41:42;;;;;;;1.60;1.08;;;15.40;99.90;;;;;;5047325;28;20367;-41
2023/07/26 08:44:09;;;;;;;1.40;1.27;;;15.50;99.90;;;;;;5045904;28;20025;-41
2023/07/26 08:46:39;;;;;;;1.48;1.30;;;15.60;99.90;;;;;;5046517;28;20465;-41
2023/07/26 08:49:05;;;;;;;2.03;1.30;;;15.70;99.90;;;;;;5045571;28;20444;-42
2023/07/26 08:51:32;;;;;;;1.48;1.38;;;15.80;99.90;;;;;;5046627;28;20033;-43
2023/07/26 08:53:58;;;;;;;1.48;1.27;;;15.90;99.90;;;;;;5046249;28;20470;-42
2023/07/26 08:56:25;;;;;;;1.50;1.30;;;16.00;99.90;;;;;;5046817;28;20029;-43
2023/07/26 08:58:51;;;;;;;1.50;1.40;;;16.10;99.90;;;;;;5046564;28;20028;-42
2023/07/26 09:01:17;;;;;;;1.58;1.48;;;16.20;99.90;;;;;;5045999;28;20822;-45
2023/07/26 09:03:44;;;;;;;2.42;1.40;;;16.30;99.90;;;;;;5045410;28;20063;-42
2023/07/26 09:06:09;;;;;;;2.05;1.95;;;16.40;99.90;;;;;;5046636;28;20447;-43
2023/07/26 09:08:35;;;;;;;2.15;1.95;;;16.40;99.90;;;;;;5045846;28;20549;-43
2023/07/26 09:11:17;;;;;;;1.90;1.70;;;16.50;99.90;;;;;;5045666;28;20049;-42
2023/07/26 09:13:52;;;;;;;2.05;1.88;;;16.60;99.90;;;;;;5046455;28;20083;-42
2023/07/26 09:16:19;;;;;;;2.72;2.17;;;16.70;99.90;;;;;;5046224;28;20404;-42
2023/07/26 09:19:04;;;;;;;2.42;2.20;;;16.70;99.90;;;;;;5044944;28;20025;-42
2023/07/26 09:21:32;;;;;;;2.70;2.50;;;16.70;99.90;;;;;;5046390;28;20036;-42
2023/07/26 09:23:59;;;;;;;3.00;2.70;;;16.80;99.90;;;;;;5045166;28;20025;-42
2023/07/26 09:26:45;;;;;;;3.30;2.90;;;16.90;99.90;;;;;;5045461;28;20029;-42
2023/07/26 09:29:13;;;;;;;3.33;2.88;;;17.00;99.90;;;;;;5045720;28;20017;-42
2023/07/26 09:31:42;;;;;;;4.05;3.10;;;17.10;99.90;;;;;;5045001;28;20052;-42
2023/07/26 09:34:11;;;;;;;5.45;3.47;;;17.20;99.90;;;;;;5045511;28;20102;-41
2023/07/26 09:36:40;;;;;;;3.97;3.40;;;17.30;99.90;;;;;;5034597;28;20044;-42
2023/07/26 09:39:06;;;;;;;4.15;3.42;;;17.30;99.90;;;;;;5044926;28;20029;-41
2023/07/26 09:41:31;;;;;;;4.72;3.78;;;17.30;99.90;;;;;;5044721;28;20033;-42
2023/07/26 09:43:59;;;;;;;3.50;3.20;;;17.30;99.90;;;;;;5046043;28;20028;-42
2023/07/26 09:46:25;;;;;;;3.95;3.38;;;17.40;99.90;;;;;;5045408;28;20750;-41
2023/07/26 09:49:00;;;;;;;3.67;3.28;;;17.40;99.90;;;;;;5045601;28;20124;-41
2023/07/26 09:51:29;;;;;;;4.15;3.70;;;17.50;99.90;;;;;;5046095;28;20393;-41
2023/07/26 09:53:56;;;;;;;3.90;3.08;;;17.60;99.90;;;;;;5045237;28;20079;-41
2023/07/26 09:56:23;;;;;;;2.92;2.55;;;17.70;99.90;;;;;;5045074;28;20025;-41
2023/07/26 09:58:50;;;;;;;3.47;3.17;;;17.80;99.90;;;;;;5045376;28;20146;-42
2023/07/26 10:01:22;;;;;;;5.40;4.18;;;17.90;99.90;;;;;;5044260;28;20032;-41
2023/07/26 10:03:53;;;;;;;5.20;4.47;;;18.10;99.90;;;;;;5045411;28;20071;-42
2023/07/26 10:06:20;;;;;;;4.20;3.30;;;18.30;99.90;;;;;;5044770;28;20029;-42
2023/07/26 10:08:46;;;;;;;4.05;3.38;;;18.40;99.90;;;;;;5044823;28;20028;-42
2023/07/26 10:11:14;;;;;;;5.65;4.00;;;18.60;99.90;;;;;;5045012;28;20061;-42
2023/07/26 10:13:42;;;;;;;6.70;3.95;;;18.80;99.90;;;;;;5044744;28;20025;-42
2023/07/26 10:16:09;;;;;;;4.57;3.78;;;19.10;99.90;;;;;;5045125;28;20108;-42
2023/07/26 10:18:35;;;;;;;4.80;3.47;;;19.20;99.90;;;;;;5045223;28;20032;-44
2023/07/26 10:21:02;;;;;;;4.45;3.45;;;19.20;99.90;;;;;;5044008;28;20033;-42
2023/07/26 10:23:30;;;;;;;6.30;4.20;;;19.20;99.90;;;;;;5044931;28;20104;-42
2023/07/26 10:25:57;;;;;;;4.38;3.42;;;19.00;99.90;;;;;;5044975;28;20127;-42
2023/07/26 10:28:24;;;;;;;3.88;2.65;;;18.40;99.90;;;;;;5044007;28;20427;-41
2023/07/26 10:30:56;;;;;;;5.55;4.32;;;17.70;99.90;;;;;;5044689;28;20017;-41
2023/07/26 10:33:21;;;;;;;6.05;4.25;;;17.00;99.90;;;;;;5045238;28;20025;-42
2023/07/26 10:35:47;;;;;;;6.82;3.95;;;16.50;99.90;;;;;;5043938;28;20435;-41
2023/07/26 10:38:15;;;;;;;6.80;3.67;;;16.20;99.90;;;;;;5040954;28;20139;-41
2023/07/26 10:40:47;;;;;;;4.45;3.10;;;15.90;99.90;;;;;;5044898;28;20032;-41
2023/07/26 10:43:39;;;;;;;4.90;3.05;;;15.80;99.90;;;;;;5044120;28;20029;-41
2023/07/26 10:46:13;;;;;;;3.40;2.67;;;15.70;99.90;;;;;;5044989;28;20029;-41
2023/07/26 10:48:40;;;;;;;5.75;3.50;;;15.60;99.90;;;;;;5044022;28;20211;-41
2023/07/26 10:51:51;;;;;;;5.43;3.53;;;15.70;99.90;;;;;;5048570;28;20028;-42
2023/07/26 10:54:51;;;;;;;6.05;3.88;;;15.90;99.90;;;;;;5036269;28;20127;-41
2023/07/26 10:57:31;;;;;;;6.22;4.32;;;16.00;99.90;;;;;;5047943;28;20029;-41
2023/07/26 11:00:10;;;;;;;6.63;4.10;;;16.10;99.90;;;;;;5048721;28;20032;-41
2023/07/26 11:02:50;;;;;;;5.35;3.88;;;16.10;99.90;;;;;;5046665;28;20080;-41
2023/07/26 11:05:21;;;;;;;4.93;3.67;;;16.10;99.90;;;;;;5048242;28;20025;-41
2023/07/26 11:08:05;;;;;;;4.85;3.22;;;16.20;99.90;;;;;;5048207;28;20017;-41
2023/07/26 11:10:36;;;;;;;3.92;3.33;;;16.40;99.90;;;;;;5047547;28;20127;-42
2023/07/26 11:13:07;;;;;;;3.80;2.95;;;16.60;99.90;;;;;;5048371;28;20055;-41
2023/07/26 11:15:38;;;;;;;4.78;3.30;;;17.00;99.90;;;;;;5048579;28;20075;-41
2023/07/26 11:18:07;;;;;;;3.33;2.83;;;17.20;99.90;;;;;;5047740;28;20035;-41
2023/07/26 11:20:32;;;;;;;5.45;4.15;;;17.40;99.90;;;;;;5047967;28;20538;-41
2023/07/26 11:22:58;;;;;;;4.88;3.75;;;17.60;99.90;;;;;;5048591;28;20029;-41
2023/07/26 11:25:24;;;;;;;7.22;3.55;;;17.70;99.90;;;;;;5047981;28;20067;-42
2023/07/26 11:27:50;;;;;;;3.92;3.10;;;17.80;99.90;;;;;;5048072;28;20417;-41
2023/07/26 11:30:19;;;;;;;5.68;3.42;;;17.90;99.90;;;;;;5047830;28;20024;-41
2023/07/26 11:32:47;;;;;;;3.80;3.33;;;18.00;99.90;;;;;;5047236;28;20523;-44
2023/07/26 11:35:18;;;;;;;4.68;3.10;;;18.10;99.90;;;;;;5047966;28;20457;-41
2023/07/26 11:37:56;;;;;;;4.82;3.30;;;18.20;99.90;;;;;;5048698;28;20051;-41
2023/07/26 11:40:22;;;;;;;4.00;3.42;;;18.30;99.90;;;;;;5044806;28;20029;-42
2023/07/26 11:42:54;;;;;;;3.67;2.72;;;18.40;99.90;;;;;;5047986;28;20509;-42
2023/07/26 11:45:20;;;;;;;3.85;3.08;;;18.40;99.90;;;;;;5046283;28;20017;-42
2023/07/26 11:47:45;;;;;;;4.18;2.90;;;18.30;99.90;;;;;;5047981;28;20032;-42
2023/07/26 11:50:17;;;;;;;3.22;2.42;;;18.20;99.90;;;;;;5047356;28;20476;-42
2023/07/26 11:52:42;;;;;;;3.17;2.67;;;18.20;99.90;;;;;;5047469;28;20036;-42
2023/07/26 11:55:08;;;;;;;4.85;2.63;;;18.10;99.90;;;;;;5047105;28;20288;-42
2023/07/26 11:57:35;;;;;;;5.50;2.88;;;18.10;99.90;;;;;;5047690;28;20021;-42
2023/07/26 12:00:04;;;;;;;5.40;3.15;;;18.20;99.90;;;;;;5045308;28;20021;-42
2023/07/26 12:02:30;;;;;;;2.88;2.35;;;18.30;99.90;;;;;;5047848;28;20081;-42
2023/07/26 12:05:19;;;;;;;5.13;3.00;;;18.50;99.90;;;;;;5048165;28;20044;-46
2023/07/26 12:07:58;;;;;;;3.83;2.60;;;18.50;99.90;;;;;;5046861;28;20052;-42
2023/07/26 12:10:35;;;;;;;2.88;2.20;;;18.50;99.90;;;;;;5047814;28;20041;-41
2023/07/26 12:13:10;;;;;;;5.50;2.50;;;18.50;99.90;;;;;;5047418;28;20083;-42
2023/07/26 12:15:54;;;;;;;2.38;1.90;;;18.50;99.90;;;;;;5047264;28;20496;-42
2023/07/26 12:18:22;;;;;;;2.85;2.10;;;18.50;99.90;;;;;;5028501;28;20035;-41
2023/07/26 12:21:07;;;;;;;2.75;1.83;;;18.50;99.90;;;;;;5040793;28;20106;-41
2023/07/26 12:23:52;;;;;;;2.60;2.20;;;18.60;99.90;;;;;;5027544;28;20132;-42
2023/07/26 12:26:26;;;;;;;2.30;1.77;;;18.70;99.90;;;;;;5044488;28;20048;-43
2023/07/26 12:28:56;;;;;;;3.75;2.47;;;18.80;99.90;;;;;;5046177;28;20036;-41
2023/07/26 12:31:25;;;;;;;3.00;2.13;;;18.90;99.90;;;;;;5046396;28;20554;-42
2023/07/26 12:33:55;;;;;;;2.40;2.05;;;18.90;99.90;;;;;;5027293;28;20087;-42
2023/07/26 12:36:22;;;;;;;2.40;1.98;;;18.90;99.90;;;;;;5041137;28;20075;-42
2023/07/26 12:38:48;;;;;;;3.45;2.28;;;18.90;99.90;;;;;;5046373;28;20559;-41
2023/07/26 12:41:14;;;;;;;2.58;1.92;;;19.00;99.90;;;;;;5045536;28;20629;-43
2023/07/26 12:43:39;;;;;;;2.22;1.98;;;19.10;99.90;;;;;;5047030;28;20032;-42
2023/07/26 12:46:05;;;;;;;3.35;2.38;;;19.30;99.90;;;;;;5046379;28;20024;-42
2023/07/26 12:48:34;;;;;;;2.20;1.92;;;19.40;99.90;;;;;;5046304;28;20029;-42
2023/07/26 12:51:00;;;;;;;2.20;2.00;;;19.50;99.90;;;;;;5046079;28;20052;-43